Time;durP1;ratioP1;P1;durP2;ratioP2;P2;SDS_P1;SDS_P2;PMS_P1;PMS_P2;Temp;Humidity;BMP_temperature;BMP_pressure;BME280_temperature;BME280_humidity;BME280_pressure;Samples;Min_cycle;Max_cycle;Signal;HPM_P1;HPM_P2
2022/12/05 00:00:59;;;;;;;;;;;;;;;;;;5094556;28;824;-66
2022/12/05 00:03:24;;;;;;;;;;;;;;;;;;5093704;28;860;-65
2022/12/05 00:05:49;;;;;;;;;;;;;;;;;;5092576;28;1885;-66
2022/12/05 00:08:14;;;;;;;;;;;;;;;;;;5093436;28;828;-66
2022/12/05 00:10:40;;;;;;;;;;;;;;;;;;5093170;28;1400;-65
2022/12/05 00:13:05;;;;;;;;;;;;;;;;;;5094791;28;904;-66
2022/12/05 00:15:31;;;;;;;;;;;;;;;;;;5092814;28;1257;-65
2022/12/05 00:17:56;;;;;;;;;;;;;;;;;;5093209;28;1062;-66
2022/12/05 00:20:21;;;;;;;;;;;;;;;;;;5094463;28;975;-65
2022/12/05 00:22:46;;;;;;;;;;;;;;;;;;5075618;28;1405;-65
2022/12/05 00:25:12;;;;;;;;;;;;;;;;;;5092311;28;1281;-66
2022/12/05 00:27:38;;;;;;;;;;;;;;;;;;5074957;28;1913;-66
2022/12/05 00:30:04;;;;;;;;;;;;;;;;;;5093031;28;1013;-65
2022/12/05 00:32:30;;;;;;;;;;;;;;;;;;5092910;28;1076;-66
2022/12/05 00:34:55;;;;;;;;;;;;;;;;;;5093249;28;821;-66
2022/12/05 00:37:21;;;;;;;;;;;;;;;;;;5091459;28;1230;-66
2022/12/05 00:39:46;;;;;;;;;;;;;;;;;;5093281;28;888;-65
2022/12/05 00:42:11;;;;;;;;;;;;;;;;;;5093378;28;994;-66
2022/12/05 00:44:36;;;;;;;;;;;;;;;;;;5091324;28;1178;-65
2022/12/05 00:47:02;;;;;;;;;;;;;;;;;;5091488;28;1922;-65
2022/12/05 00:49:27;;;;;;;;;;;;;;;;;;5092526;28;828;-65
2022/12/05 00:51:53;;;;;;;;;;;;;;;;;;5092623;28;793;-65
2022/12/05 00:54:18;;;;;;;;;;;;;;;;;;5092754;28;793;-65
2022/12/05 00:56:44;;;;;;;;;;;;;;;;;;5092873;28;888;-65
2022/12/05 00:59:13;;;;;;;;;;;;;;;;;;5091628;28;813;-66
2022/12/05 01:01:39;;;;;;;;;;;;;;;;;;5091608;28;1155;-66
2022/12/05 01:04:25;;;;;;;;;;;;;;;;;;5091416;28;1317;-66
2022/12/05 01:06:53;;;;;;;;;;;;;;;;;;5092174;28;1902;-65
2022/12/05 01:09:19;;;;;;;;;;;;;;;;;;5092361;28;785;-66
2022/12/05 01:11:44;;;;;;;;;;;;;;;;;;5092527;28;813;-65
2022/12/05 01:14:11;;;;;;;;;;;;;;;;;;5091135;28;1460;-66
2022/12/05 01:16:37;;;;;;;;;;;;;;;;;;5091952;28;899;-65
2022/12/05 01:19:07;;;;;;;;;;;;;;;;;;5092412;28;896;-65
2022/12/05 01:21:32;;;;;;;;;;;;;;;;;;5091834;28;1016;-66
2022/12/05 01:23:58;;;;;;;;;;;;;;;;;;5074199;28;1238;-66
2022/12/05 01:26:23;;;;;;;;;;;;;;;;;;5091099;28;1961;-65
2022/12/05 01:28:49;;;;;;;;;;;;;;;;;;5091468;28;1356;-65
2022/12/05 01:31:21;;;;;;;;;;;;;;;;;;5091970;28;876;-65
2022/12/05 01:33:46;;;;;;;;;;;;;;;;;;5090879;28;1225;-65
2022/12/05 01:36:11;;;;;;;;;;;;;;;;;;5074237;28;1332;-65
2022/12/05 01:38:38;;;;;;;;;;;;;;;;;;5090426;28;1333;-66
2022/12/05 01:41:05;;;;;;;;;;;;;;;;;;5091931;28;821;-65
2022/12/05 01:43:30;;;;;;;;;;;;;;;;;;5090482;28;1142;-65
2022/12/05 01:45:56;;;;;;;;;;;;;;;;;;5091863;28;1914;-66
2022/12/05 01:48:26;;;;;;;;;;;;;;;;;;5092602;28;824;-65
2022/12/05 01:50:52;;;;;;;;;;;;;;;;;;5091525;28;1367;-66
2022/12/05 01:53:18;;;;;;;;;;;;;;;;;;5073454;28;1363;-66
2022/12/05 01:55:44;;;;;;;;;;;;;;;;;;5092251;28;951;-66
2022/12/05 01:58:09;;;;;;;;;;;;;;;;;;5090392;28;1369;-66
2022/12/05 02:00:35;;;;;;;;;;;;;;;;;;5091000;28;809;-66
2022/12/05 02:03:03;;;;;;;;;;;;;;;;;;5090047;28;892;-66
2022/12/05 02:05:29;;;;;;;;;;;;;;;;;;5091306;28;884;-66
2022/12/05 02:07:56;;;;;;;;;;;;;;;;;;5091632;28;1898;-65
2022/12/05 02:10:22;;;;;;;;;;;;;;;;;;5089164;28;1163;-66
2022/12/05 02:12:48;;;;;;;;;;;;;;;;;;5090032;28;1325;-65
2022/12/05 02:15:32;;;;;;;;;;;;;;;;;;5090890;28;911;-65
2022/12/05 02:18:07;;;;;;;;;;;;;;;;;;5089664;28;1253;-65
2022/12/05 02:20:43;;;;;;;;;;;;;;;;;;5090976;28;942;-65
2022/12/05 02:23:09;;;;;;;;;;;;;;;;;;5089842;28;1182;-65
2022/12/05 02:25:34;;;;;;;;;;;;;;;;;;5089200;28;1874;-66
2022/12/05 02:28:08;;;;;;;;;;;;;;;;;;5091174;28;971;-65
2022/12/05 02:30:49;;;;;;;;;;;;;;;;;;5087950;28;1242;-65
2022/12/05 02:33:32;;;;;;;;;;;;;;;;;;5091362;28;1155;-65
2022/12/05 02:36:04;;;;;;;;;;;;;;;;;;5110142;28;1278;-65
2022/12/05 02:38:32;;;;;;;;;;;;;;;;;;5109470;28;1329;-65
2022/12/05 02:41:16;;;;;;;;;;;;;;;;;;5111540;28;875;-65
2022/12/05 02:44:00;;;;;;;;;;;;;;;;;;5111424;28;940;-65
2022/12/05 02:46:27;;;;;;;;;;;;;;;;;;5109078;28;1909;-65
2022/12/05 02:49:01;;;;;;;;;;;;;;;;;;5111158;28;860;-65
2022/12/05 02:51:30;;;;;;;;;;;;;;;;;;5110926;28;824;-65
2022/12/05 02:53:57;;;;;;;;;;;;;;;;;;5111267;28;892;-66
2022/12/05 02:56:23;;;;;;;;;;;;;;;;;;5109152;28;1268;-66
2022/12/05 02:58:50;;;;;;;;;;;;;;;;;;5109838;28;770;-65
2022/12/05 03:01:17;;;;;;;;;;;;;;;;;;5109306;28;1181;-65
2022/12/05 03:03:43;;;;;;;;;;;;;;;;;;5110951;28;824;-65
2022/12/05 03:06:13;;;;;;;;;;;;;;;;;;5109425;28;1898;-65
2022/12/05 03:08:43;;;;;;;;;;;;;;;;;;5109049;28;1341;-65
2022/12/05 03:11:09;;;;;;;;;;;;;;;;;;5109116;28;1273;-65
2022/12/05 03:13:40;;;;;;;;;;;;;;;;;;5110371;28;867;-65
2022/12/05 03:16:15;;;;;;;;;;;;;;;;;;5111009;28;761;-65
2022/12/05 03:18:46;;;;;;;;;;;;;;;;;;5110413;28;832;-66
2022/12/05 03:21:18;;;;;;;;;;;;;;;;;;5109175;28;1197;-65
2022/12/05 03:23:55;;;;;;;;;;;;;;;;;;5114261;28;1143;-65
2022/12/05 03:26:31;;;;;;;;;;;;;;;;;;5113165;28;1941;-65
2022/12/05 03:29:20;;;;;;;;;;;;;;;;;;5114846;28;911;-65
2022/12/05 03:31:52;;;;;;;;;;;;;;;;;;5115541;28;1325;-65
2022/12/05 03:34:27;;;;;;;;;;;;;;;;;;5115039;28;903;-65
2022/12/05 03:36:53;;;;;;;;;;;;;;;;;;5114838;28;1502;-65
2022/12/05 03:39:27;;;;;;;;;;;;;;;;;;5113524;28;884;-65
2022/12/05 03:41:59;;;;;;;;;;;;;;;;;;5115018;28;919;-65
2022/12/05 03:44:36;;;;;;;;;;;;;;;;;;5112561;28;1190;-65
2022/12/05 03:47:09;;;;;;;;;;;;;;;;;;5114248;28;1886;-65
2022/12/05 03:49:38;;;;;;;;;;;;;;;;;;5112625;28;1225;-65
2022/12/05 03:52:10;;;;;;;;;;;;;;;;;;5114401;28;978;-65
2022/12/05 03:55:05;;;;;;;;;;;;;;;;;;5113928;28;876;-65
2022/12/05 03:57:36;;;;;;;;;;;;;;;;;;5104909;28;1269;-65
2022/12/05 04:00:22;;;;;;;;;;;;;;;;;;5114679;28;856;-64
2022/12/05 04:02:48;;;;;;;;;;;;;;;;;;5113835;28;1138;-65
2022/12/05 04:05:20;;;;;;;;;;;;;;;;;;5112484;28;1281;-66
2022/12/05 04:07:47;;;;;;;;;;;;;;;;;;5112514;28;1989;-64
2022/12/05 04:10:16;;;;;;;;;;;;;;;;;;5112915;28;1137;-64
2022/12/05 04:12:43;;;;;;;;;;;;;;;;;;5114211;28;919;-65
2022/12/05 04:15:16;;;;;;;;;;;;;;;;;;5114270;27;947;-64
2022/12/05 04:17:51;;;;;;;;;;;;;;;;;;5112419;28;1177;-64
2022/12/05 04:23:04;;;;;;;;;;;;;;;;;;5114178;28;967;-64
2022/12/05 04:25:36;;;;;;;;;;;;;;;;;;5112097;28;1238;-64
2022/12/05 04:28:36;;;;;;;;;;;;;;;;;;5113962;28;880;-65
2022/12/05 04:31:16;;;;;;;;;;;;;;;;;;5053776;28;1516;-65
2022/12/05 04:33:41;;;;;;;;;;;;;;;;;;5108004;27;1263;-65
2022/12/05 04:36:10;;;;;;;;;;;;;;;;;;5112164;28;1189;-65
2022/12/05 04:38:35;;;;;;;;;;;;;;;;;;5111672;28;1277;-65
2022/12/05 04:41:05;;;;;;;;;;;;;;;;;;5113630;28;891;-65
2022/12/05 04:43:33;;;;;;;;;;;;;;;;;;5111521;28;1016;-65
2022/12/05 04:45:59;;;;;;;;;;;;;;;;;;5113532;27;2028;-65
2022/12/05 04:48:26;;;;;;;;;;;;;;;;;;5112813;28;896;-65
2022/12/05 04:50:52;;;;;;;;;;;;;;;;;;5111982;28;1351;-65
2022/12/05 04:53:18;;;;;;;;;;;;;;;;;;5109993;28;1173;-65
2022/12/05 04:55:46;;;;;;;;;;;;;;;;;;5111766;28;1063;-65
2022/12/05 04:58:14;;;;;;;;;;;;;;;;;;5113301;28;1194;-66
2022/12/05 05:00:52;;;;;;;;;;;;;;;;;;5112311;28;1177;-65
2022/12/05 05:03:17;;;;;;;;;;;;;;;;;;5111955;28;1213;-66
2022/12/05 05:05:45;;;;;;;;;;;;;;;;;;5113691;28;1893;-65
2022/12/05 05:08:18;;;;;;;;;;;;;;;;;;5112718;28;1198;-65
2022/12/05 05:11:01;;;;;;;;;;;;;;;;;;5112301;28;1273;-65
2022/12/05 05:13:26;;;;;;;;;;;;;;;;;;5110443;28;1166;-65
2022/12/05 05:15:51;;;;;;;;;;;;;;;;;;5111205;28;1179;-65
2022/12/05 05:18:17;;;;;;;;;;;;;;;;;;5112587;28;863;-65
2022/12/05 05:20:42;;;;;;;;;;;;;;;;;;5093689;28;1273;-65
2022/12/05 05:23:07;;;;;;;;;;;;;;;;;;5094280;28;1161;-65
2022/12/05 05:25:33;;;;;;;;;;;;;;;;;;5110482;28;947;-65
2022/12/05 05:27:58;;;;;;;;;;;;;;;;;;5094147;28;1905;-65
2022/12/05 05:30:24;;;;;;;;;;;;;;;;;;5111935;28;888;-65
2022/12/05 05:32:49;;;;;;;;;;;;;;;;;;5111011;28;1080;-65
2022/12/05 05:35:15;;;;;;;;;;;;;;;;;;5110924;28;1050;-65
2022/12/05 05:37:40;;;;;;;;;;;;;;;;;;5098779;28;1115;-65
2022/12/05 05:40:06;;;;;;;;;;;;;;;;;;5090150;28;1151;-65
2022/12/05 05:42:32;;;;;;;;;;;;;;;;;;5071192;28;1230;-68
2022/12/05 05:44:57;;;;;;;;;;;;;;;;;;5108139;28;1168;-66
2022/12/05 05:47:22;;;;;;;;;;;;;;;;;;5111621;28;1914;-66
2022/12/05 05:49:47;;;;;;;;;;;;;;;;;;5092607;28;1316;-66
2022/12/05 05:52:13;;;;;;;;;;;;;;;;;;5111540;28;1233;-66
2022/12/05 05:54:38;;;;;;;;;;;;;;;;;;5092603;28;1304;-66
2022/12/05 05:57:03;;;;;;;;;;;;;;;;;;5112278;28;836;-66
2022/12/05 05:59:29;;;;;;;;;;;;;;;;;;5110052;28;1369;-65
2022/12/05 06:01:54;;;;;;;;;;;;;;;;;;5111806;28;883;-64
2022/12/05 06:04:19;;;;;;;;;;;;;;;;;;5111748;28;938;-64
2022/12/05 06:06:44;;;;;;;;;;;;;;;;;;5111302;28;1914;-65
2022/12/05 06:09:10;;;;;;;;;;;;;;;;;;5112232;28;876;-64
2022/12/05 06:11:35;;;;;;;;;;;;;;;;;;5093012;28;1353;-64
2022/12/05 06:14:00;;;;;;;;;;;;;;;;;;5110390;28;1046;-65
2022/12/05 06:16:26;;;;;;;;;;;;;;;;;;5109585;28;1320;-65
2022/12/05 06:18:51;;;;;;;;;;;;;;;;;;5110672;28;1364;-65
2022/12/05 06:21:17;;;;;;;;;;;;;;;;;;5110097;28;1321;-65
2022/12/05 06:23:42;;;;;;;;;;;;;;;;;;5110472;28;1439;-65
2022/12/05 06:26:12;;;;;;;;;;;;;;;;;;5111423;28;1954;-65
2022/12/05 06:28:38;;;;;;;;;;;;;;;;;;5110392;28;1399;-65
2022/12/05 06:31:11;;;;;;;;;;;;;;;;;;5111049;28;804;-65
2022/12/05 06:33:36;;;;;;;;;;;;;;;;;;5111802;28;1238;-65
2022/12/05 06:36:06;;;;;;;;;;;;;;;;;;5111498;28;797;-65
2022/12/05 06:38:32;;;;;;;;;;;;;;;;;;5110573;28;1197;-65
2022/12/05 06:40:57;;;;;;;;;;;;;;;;;;5111361;28;880;-65
2022/12/05 06:43:22;;;;;;;;;;;;;;;;;;5111211;27;816;-65
2022/12/05 06:45:48;;;;;;;;;;;;;;;;;;5109492;28;1906;-65
2022/12/05 06:48:13;;;;;;;;;;;;;;;;;;5110119;28;875;-65
2022/12/05 06:50:38;;;;;;;;;;;;;;;;;;5110668;28;888;-65
2022/12/05 06:53:04;;;;;;;;;;;;;;;;;;5092580;28;1190;-65
2022/12/05 06:55:29;;;;;;;;;;;;;;;;;;5108492;28;1054;-65
2022/12/05 06:57:54;;;;;;;;;;;;;;;;;;5109716;28;868;-65
2022/12/05 07:03:03;;;;;;;;;;;;;;;;;;5110373;28;655;-65
2022/12/05 07:05:29;;;;;;;;;;;;;;;;;;5092547;28;1190;-65
2022/12/05 07:07:54;;;;;;;;;;;;;;;;;;5109921;28;1974;-65
2022/12/05 07:10:19;;;;;;;;;;;;;;;;;;5109659;28;1146;-65
2022/12/05 07:12:45;;;;;;;;;;;;;;;;;;5110204;28;832;-65
2022/12/05 07:15:10;;;;;;;;;;;;;;;;;;5109756;28;1018;-65
2022/12/05 07:17:36;;;;;;;;;;;;;;;;;;5091559;28;1107;-65
2022/12/05 07:20:02;;;;;;;;;;;;;;;;;;5110365;28;860;-65
2022/12/05 07:22:27;;;;;;;;;;;;;;;;;;5108789;28;919;-65
2022/12/05 07:24:53;;;;;;;;;;;;;;;;;;5109284;28;983;-65
2022/12/05 07:27:18;;;;;;;;;;;;;;;;;;5109569;28;1906;-65
2022/12/05 07:29:43;;;;;;;;;;;;;;;;;;5108820;28;868;-66
2022/12/05 07:32:09;;;;;;;;;;;;;;;;;;5110665;28;1090;-66
2022/12/05 07:34:34;;;;;;;;;;;;;;;;;;5108830;28;880;-65
2022/12/05 07:36:59;;;;;;;;;;;;;;;;;;5109119;28;1477;-65
2022/12/05 07:39:25;;;;;;;;;;;;;;;;;;5110702;28;958;-65
2022/12/05 07:41:50;;;;;;;;;;;;;;;;;;5109685;28;915;-65
2022/12/05 07:44:15;;;;;;;;;;;;;;;;;;5109269;28;1265;-65
2022/12/05 07:46:41;;;;;;;;;;;;;;;;;;5110179;28;1945;-66
2022/12/05 07:49:06;;;;;;;;;;;;;;;;;;5110711;28;888;-65
2022/12/05 07:51:32;;;;;;;;;;;;;;;;;;5109749;28;898;-65
2022/12/05 07:53:58;;;;;;;;;;;;;;;;;;5109090;28;1265;-65
2022/12/05 07:56:23;;;;;;;;;;;;;;;;;;5109393;28;1244;-65
2022/12/05 07:58:48;;;;;;;;;;;;;;;;;;5108113;28;781;-65
2022/12/05 08:01:15;;;;;;;;;;;;;;;;;;5109719;28;1194;-65
2022/12/05 08:03:41;;;;;;;;;;;;;;;;;;5108165;28;1186;-65
2022/12/05 08:06:08;;;;;;;;;;;;;;;;;;5102231;28;1963;-65
2022/12/05 08:08:34;;;;;;;;;;;;;;;;;;5090881;28;1180;-65
2022/12/05 08:11:04;;;;;;;;;;;;;;;;;;5093373;28;1062;-65
2022/12/05 08:13:29;;;;;;;;;;;;;;;;;;5092428;28;1341;-65
2022/12/05 08:15:55;;;;;;;;;;;;;;;;;;5095429;28;871;-65
2022/12/05 08:18:20;;;;;;;;;;;;;;;;;;5095191;28;816;-67
2022/12/05 08:20:45;;;;;;;;;;;;;;;;;;5092539;28;1337;-66
2022/12/05 08:23:10;;;;;;;;;;;;;;;;;;5094598;28;1053;-66
2022/12/05 08:25:36;;;;;;;;;;;;;;;;;;5092019;28;1046;-66
2022/12/05 08:28:01;;;;;;;;;;;;;;;;;;5093326;28;1989;-66
2022/12/05 08:30:26;;;;;;;;;;;;;;;;;;5092313;28;999;-67
2022/12/05 08:32:51;;;;;;;;;;;;;;;;;;5091148;28;1310;-66
2022/12/05 08:35:17;;;;;;;;;;;;;;;;;;5075161;28;1246;-66
2022/12/05 08:37:43;;;;;;;;;;;;;;;;;;5091408;28;1234;-66
2022/12/05 08:40:08;;;;;;;;;;;;;;;;;;5075431;28;1266;-66
2022/12/05 08:42:34;;;;;;;;;;;;;;;;;;5093194;28;903;-66
2022/12/05 08:44:59;;;;;;;;;;;;;;;;;;5075356;28;1281;-66
2022/12/05 08:47:24;;;;;;;;;;;;;;;;;;5092082;28;1914;-67
2022/12/05 08:49:50;;;;;;;;;;;;;;;;;;5091300;28;1295;-66
2022/12/05 08:52:15;;;;;;;;;;;;;;;;;;5093226;28;880;-65
2022/12/05 08:54:40;;;;;;;;;;;;;;;;;;5090973;28;868;-66
2022/12/05 08:57:05;;;;;;;;;;;;;;;;;;5093463;28;1175;-66
2022/12/05 08:59:31;;;;;;;;;;;;;;;;;;5090447;28;1211;-66
2022/12/05 09:01:56;;;;;;;;;;;;;;;;;;5091865;28;821;-66
2022/12/05 09:04:21;;;;;;;;;;;;;;;;;;5092840;28;907;-66
2022/12/05 09:06:46;;;;;;;;;;;;;;;;;;5092435;28;1898;-66
2022/12/05 09:09:12;;;;;;;;;;;;;;;;;;5091526;28;1170;-66
2022/12/05 09:11:40;;;;;;;;;;;;;;;;;;5090266;28;1328;-66
2022/12/05 09:14:05;;;;;;;;;;;;;;;;;;5091151;28;1205;-66
2022/12/05 09:16:32;;;;;;;;;;;;;;;;;;5091746;28;1058;-67
2022/12/05 09:18:57;;;;;;;;;;;;;;;;;;5091589;28;880;-66
2022/12/05 09:21:24;;;;;;;;;;;;;;;;;;5092034;28;773;-66
2022/12/05 09:23:49;;;;;;;;;;;;;;;;;;5091519;28;1085;-66
2022/12/05 09:26:16;;;;;;;;;;;;;;;;;;5091854;28;1947;-66
2022/12/05 09:28:42;;;;;;;;;;;;;;;;;;5091300;28;872;-66
2022/12/05 09:31:26;;;;;;;;;;;;;;;;;;5090786;28;1351;-66
2022/12/05 09:33:51;;;;;;;;;;;;;;;;;;5089822;28;1130;-66
2022/12/05 09:36:20;;;;;;;;;;;;;;;;;;5090553;28;1289;-66
2022/12/05 09:38:45;;;;;;;;;;;;;;;;;;5091000;28;876;-66
2022/12/05 09:41:14;;;;;;;;;;;;;;;;;;5090483;28;1198;-66
2022/12/05 09:43:54;;;;;;;;;;;;;;;;;;5091455;28;800;-66
2022/12/05 09:46:28;;;;;;;;;;;;;;;;;;5090228;28;1967;-66
2022/12/05 09:48:54;;;;;;;;;;;;;;;;;;5089339;28;1202;-65
2022/12/05 09:51:19;;;;;;;;;;;;;;;;;;5089769;28;836;-65
2022/12/05 09:53:45;;;;;;;;;;;;;;;;;;5090404;28;951;-65
2022/12/05 09:56:22;;;;;;;;;;;;;;;;;;5091450;28;824;-65
2022/12/05 09:58:49;;;;;;;;;;;;;;;;;;5090602;28;777;-65
2022/12/05 10:01:24;;;;;;;;;;;;;;;;;;5091289;28;840;-65
2022/12/05 10:04:08;;;;;;;;;;;;;;;;;;5090837;28;841;-66
2022/12/05 10:06:39;;;;;;;;;;;;;;;;;;5090481;28;1969;-67
2022/12/05 10:09:23;;;;;;;;;;;;;;;;;;5092520;28;1175;-67
2022/12/05 10:11:56;;;;;;;;;;;;;;;;;;5090434;28;1337;-64
2022/12/05 10:14:27;;;;;;;;;;;;;;;;;;5091179;28;836;-67
2022/12/05 10:16:55;;;;;;;;;;;;;;;;;;5090236;28;1113;-67
2022/12/05 10:19:23;;;;;;;;;;;;;;;;;;5090836;28;1305;-67
2022/12/05 10:21:51;;;;;;;;;;;;;;;;;;5090219;28;1328;-66
2022/12/05 10:24:25;;;;;;;;;;;;;;;;;;5091046;28;1364;-67
2022/12/05 10:26:56;;;;;;;;;;;;;;;;;;5090015;28;1894;-64
2022/12/05 10:29:21;;;;;;;;;;;;;;;;;;5091039;28;1393;-67
2022/12/05 10:31:47;;;;;;;;;;;;;;;;;;5090782;28;1215;-64
2022/12/05 10:34:20;;;;;;;;;;;;;;;;;;5091088;28;900;-65
2022/12/05 10:36:55;;;;;;;;;;;;;;;;;;5090481;28;829;-66
2022/12/05 10:39:21;;;;;;;;;;;;;;;;;;5090814;28;935;-66
2022/12/05 10:41:46;;;;;;;;;;;;;;;;;;5089171;28;809;-66
2022/12/05 10:44:12;;;;;;;;;;;;;;;;;;5090892;28;923;-65
2022/12/05 10:46:38;;;;;;;;;;;;;;;;;;5072238;28;1910;-66
2022/12/05 10:49:08;;;;;;;;;;;;;;;;;;5089448;28;899;-66
2022/12/05 10:51:33;;;;;;;;;;;;;;;;;;5090646;28;931;-66
2022/12/05 10:53:59;;;;;;;;;;;;;;;;;;5089793;28;991;-66
2022/12/05 10:56:40;;;;;;;;;;;;;;;;;;5089285;28;924;-66
2022/12/05 10:59:06;;;;;;;;;;;;;;;;;;5089260;28;1187;-66
2022/12/05 11:01:32;;;;;;;;;;;;;;;;;;5089162;28;1479;-66
2022/12/05 11:03:58;;;;;;;;;;;;;;;;;;5089942;28;841;-66
2022/12/05 11:06:25;;;;;;;;;;;;;;;;;;5088921;28;1952;-66
2022/12/05 11:08:55;;;;;;;;;;;;;;;;;;5088322;28;1342;-66
2022/12/05 11:11:22;;;;;;;;;;;;;;;;;;5089139;28;1151;-66
2022/12/05 11:14:02;;;;;;;;;;;;;;;;;;5089838;28;841;-66
2022/12/05 11:16:28;;;;;;;;;;;;;;;;;;5088841;28;1068;-66
2022/12/05 11:18:53;;;;;;;;;;;;;;;;;;5089548;28;904;-66
2022/12/05 11:21:19;;;;;;;;;;;;;;;;;;5090495;28;923;-66
2022/12/05 11:23:45;;;;;;;;;;;;;;;;;;5089547;28;1066;-66
2022/12/05 11:26:31;;;;;;;;;;;;;;;;;;5090929;28;1906;-66
2022/12/05 11:28:56;;;;;;;;;;;;;;;;;;5089620;28;932;-66
2022/12/05 11:31:25;;;;;;;;;;;;;;;;;;5089118;28;832;-66
2022/12/05 11:34:01;;;;;;;;;;;;;;;;;;5088161;28;1249;-66
2022/12/05 11:36:34;;;;;;;;;;;;;;;;;;5089128;28;1526;-66
2022/12/05 11:38:59;;;;;;;;;;;;;;;;;;5090454;28;971;-66
2022/12/05 11:41:36;;;;;;;;;;;;;;;;;;5088984;28;840;-66
2022/12/05 11:44:26;;;;;;;;;;;;;;;;;;5090569;28;1377;-66
2022/12/05 11:47:09;;;;;;;;;;;;;;;;;;5093269;28;1965;-66
2022/12/05 11:49:43;;;;;;;;;;;;;;;;;;5092759;28;1253;-66
2022/12/05 11:52:08;;;;;;;;;;;;;;;;;;5092361;28;1478;-66
2022/12/05 11:54:43;;;;;;;;;;;;;;;;;;5092812;28;1238;-66
2022/12/05 11:57:14;;;;;;;;;;;;;;;;;;5093630;28;840;-66
2022/12/05 11:59:51;;;;;;;;;;;;;;;;;;5094092;28;1002;-66
2022/12/05 12:02:19;;;;;;;;;;;;;;;;;;5093847;28;1003;-66
2022/12/05 12:04:56;;;;;;;;;;;;;;;;;;5093529;28;860;-66
2022/12/05 12:07:41;;;;;;;;;;;;;;;;;;5092270;28;1902;-66
2022/12/05 12:10:19;;;;;;;;;;;;;;;;;;5093248;28;889;-66
2022/12/05 12:13:03;;;;;;;;;;;;;;;;;;5093237;28;963;-66
2022/12/05 12:15:31;;;;;;;;;;;;;;;;;;5094884;28;927;-66
2022/12/05 12:18:05;;;;;;;;;;;;;;;;;;5093733;28;821;-66
2022/12/05 12:20:42;;;;;;;;;;;;;;;;;;5094626;28;872;-66
2022/12/05 12:23:14;;;;;;;;;;;;;;;;;;5093005;28;1390;-66
2022/12/05 12:25:40;;;;;;;;;;;;;;;;;;5094539;28;877;-66
2022/12/05 12:28:34;;;;;;;;;;;;;;;;;;5092689;28;1963;-66
2022/12/05 12:31:19;;;;;;;;;;;;;;;;;;5083781;28;1036;-66
2022/12/05 12:33:48;;;;;;;;;;;;;;;;;;5090955;28;1258;-66
2022/12/05 12:36:30;;;;;;;;;;;;;;;;;;5092932;28;832;-66
2022/12/05 12:39:07;;;;;;;;;;;;;;;;;;5091297;28;1227;-66
2022/12/05 12:41:51;;;;;;;;;;;;;;;;;;5091472;28;1186;-66
2022/12/05 12:44:16;;;;;;;;;;;;;;;;;;5091096;28;1234;-66
2022/12/05 12:46:49;;;;;;;;;;;;;;;;;;5091727;28;1914;-67
2022/12/05 12:49:35;;;;;;;;;;;;;;;;;;5093226;28;801;-66
2022/12/05 12:52:01;;;;;;;;;;;;;;;;;;5089970;28;1302;-66
2022/12/05 12:54:46;;;;;;;;;;;;;;;;;;5093174;28;911;-66
2022/12/05 12:57:19;;;;;;;;;;;;;;;;;;5091740;28;1182;-66
2022/12/05 12:59:44;;;;;;;;;;;;;;;;;;5091340;28;1226;-66
2022/12/05 13:02:27;;;;;;;;;;;;;;;;;;5092991;28;876;-66
2022/12/05 13:04:58;;;;;;;;;;;;;;;;;;5092162;28;947;-66
2022/12/05 13:07:49;;;;;;;;;;;;;;;;;;5092677;28;1949;-66
2022/12/05 13:10:25;;;;;;;;;;;;;;;;;;5092312;28;939;-67
2022/12/05 13:12:51;;;;;;;;;;;;;;;;;;5092350;28;836;-67
2022/12/05 13:15:18;;;;;;;;;;;;;;;;;;5092276;28;857;-67
2022/12/05 13:17:46;;;;;;;;;;;;;;;;;;5092075;28;876;-66
2022/12/05 13:20:20;;;;;;;;;;;;;;;;;;5092305;28;896;-66
2022/12/05 13:22:47;;;;;;;;;;;;;;;;;;5092519;28;945;-66
2022/12/05 13:25:16;;;;;;;;;;;;;;;;;;5090909;28;1212;-66
2022/12/05 13:28:01;;;;;;;;;;;;;;;;;;5090276;28;1955;-66
2022/12/05 13:30:27;;;;;;;;;;;;;;;;;;5090014;28;1168;-66
2022/12/05 13:32:57;;;;;;;;;;;;;;;;;;5091185;28;1356;-66
2022/12/05 13:43:59;;;;;;;;;;;;;;;;;;5091735;28;637;-65
2022/12/05 13:46:29;;;;;;;;;;;;;;;;;;5093021;28;1973;-65
2022/12/05 13:49:02;;;;;;;;;;;;;;;;;;5091249;28;1321;-67
2022/12/05 13:51:39;;;;;;;;;;;;;;;;;;5089354;28;1503;-67
2022/12/05 13:54:27;;;;;;;;;;;;;;;;;;5089177;28;1199;-67
2022/12/05 13:57:04;;;;;;;;;;;;;;;;;;5090759;28;1287;-65
2022/12/05 13:59:47;;;;;;;;;;;;;;;;;;5093419;28;1227;-64
2022/12/05 14:02:31;;;;;;;;;;;;;;;;;;5090249;28;1206;-67
2022/12/05 14:04:56;;;;;;;;;;;;;;;;;;5103209;28;1128;-67
2022/12/05 14:07:39;;;;;;;;;;;;;;;;;;5110528;28;2000;-64
2022/12/05 14:10:04;;;;;;;;;;;;;;;;;;5109807;28;1198;-65
2022/12/05 14:12:43;;;;;;;;;;;;;;;;;;5106879;28;1179;-65
2022/12/05 14:15:27;;;;;;;;;;;;;;;;;;5088927;28;1239;-65
2022/12/05 14:18:01;;;;;;;;;;;;;;;;;;5089490;28;1171;-67
2022/12/05 14:20:45;;;;;;;;;;;;;;;;;;5089879;28;1213;-65
2022/12/05 14:23:10;;;;;;;;;;;;;;;;;;5091611;28;1057;-65
2022/12/05 14:25:54;;;;;;;;;;;;;;;;;;5091223;28;947;-65
2022/12/05 14:28:25;;;;;;;;;;;;;;;;;;5090995;28;1918;-65
2022/12/05 14:30:51;;;;;;;;;;;;;;;;;;5090685;28;841;-65
2022/12/05 14:33:16;;;;;;;;;;;;;;;;;;5090721;28;1278;-65
2022/12/05 14:35:49;;;;;;;;;;;;;;;;;;5091369;28;812;-65
2022/12/05 14:38:36;;;;;;;;;;;;;;;;;;5090990;28;892;-65
2022/12/05 14:41:36;;;;;;;;;;;;;;;;;;5089065;28;1455;-65
2022/12/05 14:44:02;;;;;;;;;;;;;;;;;;5047508;28;1538;-65
2022/12/05 14:46:29;;;;;;;;;;;;;;;;;;5081068;28;1914;-65
2022/12/05 14:48:55;;;;;;;;;;;;;;;;;;5090021;28;812;-65
2022/12/05 14:51:29;;;;;;;;;;;;;;;;;;5090623;28;864;-65
2022/12/05 14:54:09;;;;;;;;;;;;;;;;;;5089908;28;935;-65
2022/12/05 14:56:40;;;;;;;;;;;;;;;;;;5089374;28;1231;-65
2022/12/05 14:59:27;;;;;;;;;;;;;;;;;;5089879;28;884;-65
2022/12/05 15:01:55;;;;;;;;;;;;;;;;;;5088798;28;1301;-65
2022/12/05 15:04:26;;;;;;;;;;;;;;;;;;5090371;28;928;-65
2022/12/05 15:06:58;;;;;;;;;;;;;;;;;;5090073;28;1918;-65
2022/12/05 15:09:29;;;;;;;;;;;;;;;;;;5090838;28;829;-65
2022/12/05 15:11:55;;;;;;;;;;;;;;;;;;5091002;28;892;-65
2022/12/05 15:14:22;;;;;;;;;;;;;;;;;;5091623;28;982;-65
2022/12/05 15:16:50;;;;;;;;;;;;;;;;;;5090679;28;903;-65
2022/12/05 15:19:28;;;;;;;;;;;;;;;;;;5094394;28;848;-65
2022/12/05 15:21:55;;;;;;;;;;;;;;;;;;5094507;28;911;-65
2022/12/05 15:24:21;;;;;;;;;;;;;;;;;;5094635;28;820;-65
2022/12/05 15:26:49;;;;;;;;;;;;;;;;;;5092351;28;1952;-65
2022/12/05 15:29:17;;;;;;;;;;;;;;;;;;5094278;28;1090;-65
2022/12/05 15:31:44;;;;;;;;;;;;;;;;;;5094701;28;847;-65
2022/12/05 15:34:22;;;;;;;;;;;;;;;;;;5092643;28;1349;-65
2022/12/05 15:36:54;;;;;;;;;;;;;;;;;;5093519;28;1374;-65
2022/12/05 15:39:27;;;;;;;;;;;;;;;;;;5094698;28;935;-65
2022/12/05 15:41:53;;;;;;;;;;;;;;;;;;5092658;28;1238;-65
2022/12/05 15:44:19;;;;;;;;;;;;;;;;;;5094126;28;943;-65
2022/12/05 15:46:50;;;;;;;;;;;;;;;;;;5094110;28;1963;-65
2022/12/05 15:49:19;;;;;;;;;;;;;;;;;;5094536;28;879;-65
2022/12/05 15:51:45;;;;;;;;;;;;;;;;;;5094211;28;824;-65
2022/12/05 15:54:14;;;;;;;;;;;;;;;;;;5075809;28;1325;-65
2022/12/05 15:56:39;;;;;;;;;;;;;;;;;;5093925;28;801;-66
2022/12/05 15:59:10;;;;;;;;;;;;;;;;;;5092406;28;1417;-65
2022/12/05 16:01:47;;;;;;;;;;;;;;;;;;5094276;28;994;-65
2022/12/05 16:04:24;;;;;;;;;;;;;;;;;;5093987;28;836;-65
2022/12/05 16:06:51;;;;;;;;;;;;;;;;;;5091940;28;1906;-66
2022/12/05 16:09:18;;;;;;;;;;;;;;;;;;5092252;28;1380;-66
2022/12/05 16:12:04;;;;;;;;;;;;;;;;;;5092543;28;1218;-66
2022/12/05 16:14:34;;;;;;;;;;;;;;;;;;5093434;28;1263;-65
2022/12/05 16:17:01;;;;;;;;;;;;;;;;;;5093425;28;872;-65
2022/12/05 16:19:27;;;;;;;;;;;;;;;;;;5093297;28;825;-66
2022/12/05 16:22:08;;;;;;;;;;;;;;;;;;5093323;28;917;-65
2022/12/05 16:24:56;;;;;;;;;;;;;;;;;;5092397;28;1322;-65
2022/12/05 16:27:24;;;;;;;;;;;;;;;;;;5084287;28;1902;-66
2022/12/05 16:30:05;;;;;;;;;;;;;;;;;;5091726;28;1225;-65
2022/12/05 16:32:33;;;;;;;;;;;;;;;;;;5092853;28;1092;-65
2022/12/05 16:34:59;;;;;;;;;;;;;;;;;;5092922;28;966;-65
2022/12/05 16:37:25;;;;;;;;;;;;;;;;;;5091801;28;1192;-65
2022/12/05 16:39:51;;;;;;;;;;;;;;;;;;5092852;28;853;-65
2022/12/05 16:42:26;;;;;;;;;;;;;;;;;;5091491;28;1265;-65
2022/12/05 16:44:56;;;;;;;;;;;;;;;;;;5093461;28;900;-65
2022/12/05 16:47:23;;;;;;;;;;;;;;;;;;5092429;28;1910;-65
2022/12/05 16:49:48;;;;;;;;;;;;;;;;;;5092040;28;1313;-65
2022/12/05 16:52:14;;;;;;;;;;;;;;;;;;5092584;28;1205;-66
2022/12/05 16:54:41;;;;;;;;;;;;;;;;;;5094473;28;849;-66
2022/12/05 16:57:07;;;;;;;;;;;;;;;;;;5092413;28;856;-66
2022/12/05 16:59:34;;;;;;;;;;;;;;;;;;5093189;28;816;-66
2022/12/05 17:02:00;;;;;;;;;;;;;;;;;;5091070;28;1214;-65
2022/12/05 17:04:26;;;;;;;;;;;;;;;;;;5091372;28;1190;-65
2022/12/05 17:06:52;;;;;;;;;;;;;;;;;;5090926;28;1905;-66
2022/12/05 17:09:17;;;;;;;;;;;;;;;;;;5092373;28;974;-66
2022/12/05 17:11:43;;;;;;;;;;;;;;;;;;5091701;28;880;-66
2022/12/05 17:14:12;;;;;;;;;;;;;;;;;;5092889;28;837;-65
2022/12/05 17:16:38;;;;;;;;;;;;;;;;;;5091533;28;1336;-66
2022/12/05 17:19:04;;;;;;;;;;;;;;;;;;5092504;28;832;-64
2022/12/05 17:21:30;;;;;;;;;;;;;;;;;;5091526;28;1242;-66
2022/12/05 17:23:56;;;;;;;;;;;;;;;;;;5092009;28;829;-66
2022/12/05 17:26:21;;;;;;;;;;;;;;;;;;5091435;28;1927;-66
2022/12/05 17:28:47;;;;;;;;;;;;;;;;;;5092421;28;1091;-66
2022/12/05 17:31:15;;;;;;;;;;;;;;;;;;5092020;28;1320;-65
2022/12/05 17:33:41;;;;;;;;;;;;;;;;;;5090890;28;1229;-65
2022/12/05 17:36:06;;;;;;;;;;;;;;;;;;5092253;28;844;-65
2022/12/05 17:38:31;;;;;;;;;;;;;;;;;;5092141;28;903;-65
2022/12/05 17:40:56;;;;;;;;;;;;;;;;;;5091115;28;915;-64